Durham — WDF3868 — position and weather

sailwx.info

Track history (hours):
 
Tides and Currents Weather Stations Pressure Air Temp Water Temp Dewpoint Dewpoint Depression Visibility Wind Speed Wind Dir Waves Ship Positions

Durham

Owner: KEN'S BOOMING & BOAT SERVICE, INC., BAYONNE, NJ. More information available from US FCC via Universal Licensing System and Coast Guard Vessel Documentation Center.

Last reported at 2017-Oct-18 19:27 UTC. Time now 2017-Oct-19 15:10 UTC.
Position N 40°39' W 074°07'.

Length 18 m.

MMSI: 367444950.

Date/timePositionNaut miles runAvg speedWind from/ knotsBaromVisibWave heightAir tempDewpointWater temp
2017-Oct-18 19:27N 40°39' W 074°07'2 4.6
2017-Oct-18 19:00N 40°39' W 074°10'1 2.5
2017-Oct-18 18:27N 40°38' W 074°12'3 6.1
2017-Oct-18 18:00N 40°39' W 074°08'2 3.3
2017-Oct-18 17:30N 40°39' W 074°06'3 5.4
2017-Oct-18 17:00N 40°37' W 074°03'3 5.7
2017-Oct-18 16:30N 40°35' W 074°01'3 5.6
2017-Oct-18 15:59N 40°34' W 073°58'3 5.4
2017-Oct-18 15:30N 40°35' W 073°55'5 2.8
2017-Oct-18 13:52N 40°34' W 074°01'3 7.8
2017-Oct-18 13:30N 40°36' W 074°03'3 6.3
2017-Oct-18 13:00N 40°39' W 074°06'1 0.1
2017-Oct-17 18:59N 40°39' W 074°07'0 0.0
2017-Oct-17 12:39N 40°39' W 074°07'1 7.1
2017-Oct-17 12:30N 40°39' W 074°06'2 4.1
2017-Oct-17 12:00N 40°41' W 074°04'2 3.8
2017-Oct-17 11:30N 40°39' W 074°05'1 2.3
2017-Oct-17 10:57N 40°39' W 074°07'0 0.0
2017-Oct-16 12:50N 40°39' W 074°07'0 0.1
2017-Oct-16 12:30N 40°39' W 074°07'  
2017-Oct-13 16:37N 40°39' W 074°07'0 0.5
2017-Oct-13 16:30N 40°39' W 074°07'4 7.1
2017-Oct-13 15:59N 40°37' W 074°03'4 8.3
2017-Oct-13 15:30N 40°34' W 073°59'4 7.1
2017-Oct-13 14:59N 40°35' W 073°55'1 1.2
2017-Oct-13 14:28N 40°35' W 073°55'6 2.5
2017-Oct-13 12:09N 40°36' W 074°02'1 7.9
2017-Oct-13 12:00N 40°37' W 074°03'3 5.8
2017-Oct-13 11:30N 40°39' W 074°06'3 6.6
2017-Oct-13 11:00N 40°39' W 074°10'1 2.3
2017-Oct-13 10:29N 40°38' W 074°12'3 5.2
2017-Oct-13 09:59N 40°39' W 074°08'1 0.1
2017-Oct-12 21:24N 40°39' W 074°07'0 0.0
2017-Oct-12 20:16N 40°39' W 074°07'0 0.1
2017-Oct-12 20:00N 40°39' W 074°07'0 0.0
2017-Oct-12 19:29N 40°39' W 074°07'0 0.0
2017-Oct-12 17:09N 40°39' W 074°07'0 0.0
2017-Oct-12 16:59N 40°39' W 074°07'2 3.0
2017-Oct-12 16:29N 40°39' W 074°09'2 3.4
2017-Oct-12 15:56N 40°38' W 074°12'2 4.4
2017-Oct-12 15:28N 40°39' W 074°09'1 0.1
2017-Oct-12 02:03N 40°39' W 074°07'0 3.6
2017-Oct-12 02:00N 40°39' W 074°07'3 6.5
2017-Oct-12 01:30N 40°38' W 074°12'2 4.6
2017-Oct-12 01:00N 40°39' W 074°09'3 6.6
2017-Oct-12 00:31N 40°39' W 074°04'3 5.2
2017-Oct-12 00:00N 40°37' W 074°03'2 4.3
2017-Oct-11 23:30N 40°35' W 074°01'4 5.2
2017-Oct-11 22:41N 40°34' W 073°56'1 7.1
2017-Oct-11 22:30N 40°34' W 073°54'1 1.3
2017-Oct-11 21:51N 40°35' W 073°55'6 4.0
2017-Oct-11 20:22N 40°36' W 074°02'4 7.7
2017-Oct-11 19:55N 40°39' W 074°05'4 8.1
2017-Oct-11 19:29N 40°39' W 074°09'2 3.6
2017-Oct-11 18:59N 40°38' W 074°12'1 2.5
2017-Oct-11 18:30N 40°39' W 074°10'3 5.9
2017-Oct-11 18:00N 40°39' W 074°06'3 5.6
2017-Oct-11 17:30N 40°38' W 074°03'4 7.1
2017-Oct-11 17:00N 40°34' W 074°01'8 0.5
2017-Oct-10 23:55N 40°42' W 073°59'4 6.6
2017-Oct-10 23:20N 40°46' W 073°57'1 0.0
2017-Oct-10 06:22N 40°46' W 073°57'2 4.3
2017-Oct-10 06:00N 40°45' W 073°58'3 5.4
2017-Oct-10 05:30N 40°42' W 073°59'3 6.0
2017-Oct-10 05:00N 40°41' W 074°02'3 6.1
2017-Oct-10 04:30N 40°39' W 074°05'3 5.7
2017-Oct-10 04:00N 40°39' W 074°09'2 4.0
2017-Oct-10 03:30N 40°38' W 074°12'1 2.3
2017-Oct-10 03:00N 40°39' W 074°10'2 0.2
2017-Oct-09 14:22N 40°39' W 074°07'3 7.6
2017-Oct-09 14:00N 40°38' W 074°04'5 9.4
2017-Oct-09 13:30N 40°34' W 074°00'2 4.8
2017-Oct-09 13:00N 40°36' W 074°02'4 7.5
2017-Oct-09 12:30N 40°39' W 074°05'  
Track history (hours):
 
Tides and Currents Weather Stations Pressure Air Temp Water Temp Dewpoint Dewpoint Depression Visibility Wind Speed Wind Dir Waves Ship Positions

Durham

Owner: KEN'S BOOMING & BOAT SERVICE, INC., BAYONNE, NJ. More information available from US FCC via Universal Licensing System and Coast Guard Vessel Documentation Center.

Last reported at 2017-Oct-18 19:27 UTC. Time now 2017-Oct-19 15:10 UTC.
Position N 40°39' W 074°07'.

Length 18 m.

MMSI: 367444950.

Date/timePositionNaut miles runAvg speedWind from/ knotsBaromVisibWave heightAir tempDewpointWater temp
2017-Oct-18 19:27N 40°39' W 074°07'2 4.6
2017-Oct-18 19:00N 40°39' W 074°10'1 2.5
2017-Oct-18 18:27N 40°38' W 074°12'3 6.1
2017-Oct-18 18:00N 40°39' W 074°08'2 3.3
2017-Oct-18 17:30N 40°39' W 074°06'3 5.4
2017-Oct-18 17:00N 40°37' W 074°03'3 5.7
2017-Oct-18 16:30N 40°35' W 074°01'3 5.6
2017-Oct-18 15:59N 40°34' W 073°58'3 5.4
2017-Oct-18 15:30N 40°35' W 073°55'5 2.8
2017-Oct-18 13:52N 40°34' W 074°01'3 7.8
2017-Oct-18 13:30N 40°36' W 074°03'3 6.3
2017-Oct-18 13:00N 40°39' W 074°06'1 0.1
2017-Oct-17 18:59N 40°39' W 074°07'0 0.0
2017-Oct-17 12:39N 40°39' W 074°07'1 7.1
2017-Oct-17 12:30N 40°39' W 074°06'2 4.1
2017-Oct-17 12:00N 40°41' W 074°04'2 3.8
2017-Oct-17 11:30N 40°39' W 074°05'1 2.3
2017-Oct-17 10:57N 40°39' W 074°07'0 0.0
2017-Oct-16 12:50N 40°39' W 074°07'0 0.1
2017-Oct-16 12:30N 40°39' W 074°07'  
2017-Oct-13 16:37N 40°39' W 074°07'0 0.5
2017-Oct-13 16:30N 40°39' W 074°07'4 7.1
2017-Oct-13 15:59N 40°37' W 074°03'4 8.3
2017-Oct-13 15:30N 40°34' W 073°59'4 7.1
2017-Oct-13 14:59N 40°35' W 073°55'1 1.2
2017-Oct-13 14:28N 40°35' W 073°55'6 2.5
2017-Oct-13 12:09N 40°36' W 074°02'1 7.9
2017-Oct-13 12:00N 40°37' W 074°03'3 5.8
2017-Oct-13 11:30N 40°39' W 074°06'3 6.6
2017-Oct-13 11:00N 40°39' W 074°10'1 2.3
2017-Oct-13 10:29N 40°38' W 074°12'3 5.2
2017-Oct-13 09:59N 40°39' W 074°08'1 0.1
2017-Oct-12 21:24N 40°39' W 074°07'0 0.0
2017-Oct-12 20:16N 40°39' W 074°07'0 0.1
2017-Oct-12 20:00N 40°39' W 074°07'0 0.0
2017-Oct-12 19:29N 40°39' W 074°07'0 0.0
2017-Oct-12 17:09N 40°39' W 074°07'0 0.0
2017-Oct-12 16:59N 40°39' W 074°07'2 3.0
2017-Oct-12 16:29N 40°39' W 074°09'2 3.4
2017-Oct-12 15:56N 40°38' W 074°12'2 4.4
2017-Oct-12 15:28N 40°39' W 074°09'1 0.1
2017-Oct-12 02:03N 40°39' W 074°07'0 3.6
2017-Oct-12 02:00N 40°39' W 074°07'3 6.5
2017-Oct-12 01:30N 40°38' W 074°12'2 4.6
2017-Oct-12 01:00N 40°39' W 074°09'3 6.6
2017-Oct-12 00:31N 40°39' W 074°04'3 5.2
2017-Oct-12 00:00N 40°37' W 074°03'2 4.3
2017-Oct-11 23:30N 40°35' W 074°01'4 5.2
2017-Oct-11 22:41N 40°34' W 073°56'1 7.1
2017-Oct-11 22:30N 40°34' W 073°54'1 1.3
2017-Oct-11 21:51N 40°35' W 073°55'6 4.0
2017-Oct-11 20:22N 40°36' W 074°02'4 7.7
2017-Oct-11 19:55N 40°39' W 074°05'4 8.1
2017-Oct-11 19:29N 40°39' W 074°09'2 3.6
2017-Oct-11 18:59N 40°38' W 074°12'1 2.5
2017-Oct-11 18:30N 40°39' W 074°10'3 5.9
2017-Oct-11 18:00N 40°39' W 074°06'3 5.6
2017-Oct-11 17:30N 40°38' W 074°03'4 7.1
2017-Oct-11 17:00N 40°34' W 074°01'8 0.5
2017-Oct-10 23:55N 40°42' W 073°59'4 6.6
2017-Oct-10 23:20N 40°46' W 073°57'1 0.0
2017-Oct-10 06:22N 40°46' W 073°57'2 4.3
2017-Oct-10 06:00N 40°45' W 073°58'3 5.4
2017-Oct-10 05:30N 40°42' W 073°59'3 6.0
2017-Oct-10 05:00N 40°41' W 074°02'3 6.1
2017-Oct-10 04:30N 40°39' W 074°05'3 5.7
2017-Oct-10 04:00N 40°39' W 074°09'2 4.0
2017-Oct-10 03:30N 40°38' W 074°12'1 2.3
2017-Oct-10 03:00N 40°39' W 074°10'2 0.2
2017-Oct-09 14:22N 40°39' W 074°07'3 7.6
2017-Oct-09 14:00N 40°38' W 074°04'5 9.4
2017-Oct-09 13:30N 40°34' W 074°00'2 4.8
2017-Oct-09 13:00N 40°36' W 074°02'4 7.5
2017-Oct-09 12:30N 40°39' W 074°05'  

Dump ship's entire track history